sensor_id;sensor_type;location;lat;lon;timestamp;temperature;humidity
62583;DHT22;48641;51.676;5.808;2023-05-16T00:01:48;19.50;63.90
62583;DHT22;48641;51.676;5.808;2023-05-16T00:04:14;19.50;64.00
62583;DHT22;48641;51.676;5.808;2023-05-16T00:06:40;19.50;63.90
62583;DHT22;48641;51.676;5.808;2023-05-16T00:09:06;19.40;63.80
62583;DHT22;48641;51.676;5.808;2023-05-16T00:11:32;19.40;63.80
62583;DHT22;48641;51.676;5.808;2023-05-16T00:13:57;19.40;63.80
62583;DHT22;48641;51.676;5.808;2023-05-16T00:16:23;19.50;63.80
62583;DHT22;48641;51.676;5.808;2023-05-16T00:18:50;19.40;63.90
62583;DHT22;48641;51.676;5.808;2023-05-16T00:21:17;19.40;63.80
62583;DHT22;48641;51.676;5.808;2023-05-16T00:23:42;19.40;63.80
62583;DHT22;48641;51.676;5.808;2023-05-16T00:26:08;19.40;63.90
62583;DHT22;48641;51.676;5.808;2023-05-16T00:28:34;19.40;63.80
62583;DHT22;48641;51.676;5.808;2023-05-16T00:31:00;19.40;63.90
62583;DHT22;48641;51.676;5.808;2023-05-16T00:33:25;19.40;63.90
62583;DHT22;48641;51.676;5.808;2023-05-16T00:35:51;19.40;63.90
62583;DHT22;48641;51.676;5.808;2023-05-16T00:38:18;19.40;63.90
62583;DHT22;48641;51.676;5.808;2023-05-16T00:40:44;19.40;63.80
62583;DHT22;48641;51.676;5.808;2023-05-16T00:43:11;19.40;63.80
62583;DHT22;48641;51.676;5.808;2023-05-16T00:45:37;19.40;63.90
62583;DHT22;48641;51.676;5.808;2023-05-16T00:48:02;19.40;63.80
62583;DHT22;48641;51.676;5.808;2023-05-16T00:50:28;19.30;63.80
62583;DHT22;48641;51.676;5.808;2023-05-16T00:52:54;19.40;63.80
62583;DHT22;48641;51.676;5.808;2023-05-16T00:55:20;19.30;63.80
62583;DHT22;48641;51.676;5.808;2023-05-16T00:57:46;19.30;63.80
62583;DHT22;48641;51.676;5.808;2023-05-16T01:00:13;19.30;63.70
62583;DHT22;48641;51.676;5.808;2023-05-16T01:02:45;19.30;63.70
62583;DHT22;48641;51.676;5.808;2023-05-16T01:05:11;19.30;63.80
62583;DHT22;48641;51.676;5.808;2023-05-16T01:07:37;19.30;63.80
62583;DHT22;48641;51.676;5.808;2023-05-16T01:10:05;19.30;63.80
62583;DHT22;48641;51.676;5.808;2023-05-16T01:15:27;19.40;63.70
62583;DHT22;48641;51.676;5.808;2023-05-16T01:18:24;19.30;63.80
62583;DHT22;48641;51.676;5.808;2023-05-16T01:20:58;19.30;63.70
62583;DHT22;48641;51.676;5.808;2023-05-16T01:26:09;19.30;63.90
62583;DHT22;48641;51.676;5.808;2023-05-16T01:28:35;19.30;63.80
62583;DHT22;48641;51.676;5.808;2023-05-16T01:31:01;19.20;63.80
62583;DHT22;48641;51.676;5.808;2023-05-16T01:33:27;19.20;63.80
62583;DHT22;48641;51.676;5.808;2023-05-16T01:39:10;19.30;63.70
62583;DHT22;48641;51.676;5.808;2023-05-16T01:41:58;19.20;63.80
62583;DHT22;48641;51.676;5.808;2023-05-16T01:44:40;19.20;63.90
62583;DHT22;48641;51.676;5.808;2023-05-16T01:47:11;19.20;63.90
62583;DHT22;48641;51.676;5.808;2023-05-16T01:52:34;19.20;64.00
62583;DHT22;48641;51.676;5.808;2023-05-16T01:55:01;19.20;63.90
62583;DHT22;48641;51.676;5.808;2023-05-16T01:57:28;19.20;63.80
62583;DHT22;48641;51.676;5.808;2023-05-16T01:59:58;19.20;63.90
62583;DHT22;48641;51.676;5.808;2023-05-16T02:02:24;19.20;63.90
62583;DHT22;48641;51.676;5.808;2023-05-16T02:04:49;19.20;63.90
62583;DHT22;48641;51.676;5.808;2023-05-16T02:07:15;19.20;63.90
62583;DHT22;48641;51.676;5.808;2023-05-16T02:09:41;19.20;63.80
62583;DHT22;48641;51.676;5.808;2023-05-16T02:12:07;19.20;63.90
62583;DHT22;48641;51.676;5.808;2023-05-16T02:14:32;19.20;63.90
62583;DHT22;48641;51.676;5.808;2023-05-16T02:16:58;19.10;63.80
62583;DHT22;48641;51.676;5.808;2023-05-16T02:19:23;19.20;63.80
62583;DHT22;48641;51.676;5.808;2023-05-16T02:21:49;19.20;63.80
62583;DHT22;48641;51.676;5.808;2023-05-16T02:24:15;19.20;63.80
62583;DHT22;48641;51.676;5.808;2023-05-16T02:26:41;19.20;63.80
62583;DHT22;48641;51.676;5.808;2023-05-16T02:29:09;19.10;63.70
62583;DHT22;48641;51.676;5.808;2023-05-16T02:31:35;19.20;63.70
62583;DHT22;48641;51.676;5.808;2023-05-16T02:34:01;19.20;63.70
62583;DHT22;48641;51.676;5.808;2023-05-16T02:36:27;19.20;63.70
62583;DHT22;48641;51.676;5.808;2023-05-16T02:38:53;19.20;63.70
62583;DHT22;48641;51.676;5.808;2023-05-16T02:41:19;19.10;63.70
62583;DHT22;48641;51.676;5.808;2023-05-16T02:43:46;19.20;63.70
62583;DHT22;48641;51.676;5.808;2023-05-16T02:46:28;19.10;63.60
62583;DHT22;48641;51.676;5.808;2023-05-16T02:48:57;19.10;63.70
62583;DHT22;48641;51.676;5.808;2023-05-16T02:51:24;19.10;63.70
62583;DHT22;48641;51.676;5.808;2023-05-16T02:53:51;19.10;63.70
62583;DHT22;48641;51.676;5.808;2023-05-16T02:56:17;19.10;63.70
62583;DHT22;48641;51.676;5.808;2023-05-16T02:58:45;19.10;63.70
62583;DHT22;48641;51.676;5.808;2023-05-16T03:01:11;19.10;63.70
62583;DHT22;48641;51.676;5.808;2023-05-16T03:03:36;19.10;63.70
62583;DHT22;48641;51.676;5.808;2023-05-16T03:06:02;19.10;63.70
62583;DHT22;48641;51.676;5.808;2023-05-16T03:08:28;19.10;63.70
62583;DHT22;48641;51.676;5.808;2023-05-16T03:10:53;19.10;63.70
62583;DHT22;48641;51.676;5.808;2023-05-16T03:13:19;19.10;63.80
62583;DHT22;48641;51.676;5.808;2023-05-16T03:15:45;19.10;63.80
62583;DHT22;48641;51.676;5.808;2023-05-16T03:18:10;19.10;63.70
62583;DHT22;48641;51.676;5.808;2023-05-16T03:20:37;19.10;63.80
62583;DHT22;48641;51.676;5.808;2023-05-16T03:23:02;19.10;63.80
62583;DHT22;48641;51.676;5.808;2023-05-16T03:25:32;19.00;63.70
62583;DHT22;48641;51.676;5.808;2023-05-16T03:27:57;19.00;63.70
62583;DHT22;48641;51.676;5.808;2023-05-16T03:30:23;19.00;64.00
62583;DHT22;48641;51.676;5.808;2023-05-16T03:32:50;19.00;63.70
62583;DHT22;48641;51.676;5.808;2023-05-16T03:35:16;19.00;63.70
62583;DHT22;48641;51.676;5.808;2023-05-16T03:37:42;19.00;63.60
62583;DHT22;48641;51.676;5.808;2023-05-16T03:40:08;19.00;63.60
62583;DHT22;48641;51.676;5.808;2023-05-16T03:42:33;19.00;63.50
62583;DHT22;48641;51.676;5.808;2023-05-16T03:44:59;19.00;63.60
62583;DHT22;48641;51.676;5.808;2023-05-16T03:47:25;19.00;63.60
62583;DHT22;48641;51.676;5.808;2023-05-16T03:49:50;19.00;63.60
62583;DHT22;48641;51.676;5.808;2023-05-16T03:52:17;19.00;63.60
62583;DHT22;48641;51.676;5.808;2023-05-16T03:54:42;19.00;63.60
62583;DHT22;48641;51.676;5.808;2023-05-16T03:57:08;19.00;63.60
62583;DHT22;48641;51.676;5.808;2023-05-16T03:59:34;19.00;63.60
62583;DHT22;48641;51.676;5.808;2023-05-16T04:02:00;19.00;63.60
62583;DHT22;48641;51.676;5.808;2023-05-16T04:04:26;19.00;63.60
62583;DHT22;48641;51.676;5.808;2023-05-16T04:06:51;19.00;63.60
62583;DHT22;48641;51.676;5.808;2023-05-16T04:09:17;18.90;63.50
62583;DHT22;48641;51.676;5.808;2023-05-16T04:11:43;18.90;63.60
62583;DHT22;48641;51.676;5.808;2023-05-16T04:14:08;18.90;63.60
62583;DHT22;48641;51.676;5.808;2023-05-16T04:16:34;18.90;63.60
62583;DHT22;48641;51.676;5.808;2023-05-16T04:18:59;18.90;63.50
62583;DHT22;48641;51.676;5.808;2023-05-16T04:21:25;18.90;63.60
62583;DHT22;48641;51.676;5.808;2023-05-16T04:23:51;18.90;63.50
62583;DHT22;48641;51.676;5.808;2023-05-16T04:26:16;18.90;63.50
62583;DHT22;48641;51.676;5.808;2023-05-16T04:28:42;18.90;63.50
62583;DHT22;48641;51.676;5.808;2023-05-16T04:31:07;18.90;63.50
62583;DHT22;48641;51.676;5.808;2023-05-16T04:33:33;18.90;63.50
62583;DHT22;48641;51.676;5.808;2023-05-16T04:35:59;18.90;63.50
62583;DHT22;48641;51.676;5.808;2023-05-16T04:38:28;18.90;63.50
62583;DHT22;48641;51.676;5.808;2023-05-16T04:40:53;18.90;63.50
62583;DHT22;48641;51.676;5.808;2023-05-16T04:43:19;18.90;63.50
62583;DHT22;48641;51.676;5.808;2023-05-16T04:45:44;18.90;63.50
62583;DHT22;48641;51.676;5.808;2023-05-16T04:48:11;18.80;63.40
62583;DHT22;48641;51.676;5.808;2023-05-16T04:50:36;18.80;63.40
62583;DHT22;48641;51.676;5.808;2023-05-16T04:53:02;18.80;63.40
62583;DHT22;48641;51.676;5.808;2023-05-16T04:55:28;18.80;63.50
62583;DHT22;48641;51.676;5.808;2023-05-16T04:57:53;18.80;63.50
62583;DHT22;48641;51.676;5.808;2023-05-16T05:00:19;18.80;63.40
62583;DHT22;48641;51.676;5.808;2023-05-16T05:02:45;18.80;63.40
62583;DHT22;48641;51.676;5.808;2023-05-16T05:05:11;18.80;63.50
62583;DHT22;48641;51.676;5.808;2023-05-16T05:07:36;18.80;63.40
62583;DHT22;48641;51.676;5.808;2023-05-16T05:10:02;18.80;63.40
62583;DHT22;48641;51.676;5.808;2023-05-16T05:12:28;18.80;63.40
62583;DHT22;48641;51.676;5.808;2023-05-16T05:14:54;18.80;63.30
62583;DHT22;48641;51.676;5.808;2023-05-16T05:17:20;18.80;63.30
62583;DHT22;48641;51.676;5.808;2023-05-16T05:19:46;18.80;63.30
62583;DHT22;48641;51.676;5.808;2023-05-16T05:22:13;18.80;63.10
62583;DHT22;48641;51.676;5.808;2023-05-16T05:24:39;18.80;63.30
62583;DHT22;48641;51.676;5.808;2023-05-16T05:27:04;18.70;63.20
62583;DHT22;48641;51.676;5.808;2023-05-16T05:29:30;18.80;63.20
62583;DHT22;48641;51.676;5.808;2023-05-16T05:31:56;18.70;63.20
62583;DHT22;48641;51.676;5.808;2023-05-16T05:34:21;18.70;63.20
62583;DHT22;48641;51.676;5.808;2023-05-16T05:36:47;18.70;63.20
62583;DHT22;48641;51.676;5.808;2023-05-16T05:39:13;18.70;63.20
62583;DHT22;48641;51.676;5.808;2023-05-16T05:41:38;18.70;63.20
62583;DHT22;48641;51.676;5.808;2023-05-16T05:44:05;18.70;63.20
62583;DHT22;48641;51.676;5.808;2023-05-16T05:46:31;18.70;63.20
62583;DHT22;48641;51.676;5.808;2023-05-16T05:48:58;18.70;63.20
62583;DHT22;48641;51.676;5.808;2023-05-16T05:51:25;18.70;63.10
62583;DHT22;48641;51.676;5.808;2023-05-16T05:53:51;18.70;63.20
62583;DHT22;48641;51.676;5.808;2023-05-16T05:56:17;18.70;63.20
62583;DHT22;48641;51.676;5.808;2023-05-16T05:58:43;18.70;63.20
62583;DHT22;48641;51.676;5.808;2023-05-16T06:01:10;18.70;63.20
62583;DHT22;48641;51.676;5.808;2023-05-16T06:03:36;18.70;63.20
62583;DHT22;48641;51.676;5.808;2023-05-16T06:06:03;18.70;63.20
62583;DHT22;48641;51.676;5.808;2023-05-16T06:08:28;18.70;63.20
62583;DHT22;48641;51.676;5.808;2023-05-16T06:10:54;18.70;63.20
62583;DHT22;48641;51.676;5.808;2023-05-16T06:13:20;18.60;63.30
62583;DHT22;48641;51.676;5.808;2023-05-16T06:15:52;18.70;63.20
62583;DHT22;48641;51.676;5.808;2023-05-16T06:18:18;18.60;63.20
62583;DHT22;48641;51.676;5.808;2023-05-16T06:20:44;18.60;63.30
62583;DHT22;48641;51.676;5.808;2023-05-16T06:23:10;18.60;63.30
62583;DHT22;48641;51.676;5.808;2023-05-16T06:25:36;18.60;63.30
62583;DHT22;48641;51.676;5.808;2023-05-16T06:28:01;18.60;63.30
62583;DHT22;48641;51.676;5.808;2023-05-16T06:30:27;18.60;63.30
62583;DHT22;48641;51.676;5.808;2023-05-16T06:32:53;18.60;63.40
62583;DHT22;48641;51.676;5.808;2023-05-16T06:35:18;18.60;63.30
62583;DHT22;48641;51.676;5.808;2023-05-16T06:37:44;18.60;63.30
62583;DHT22;48641;51.676;5.808;2023-05-16T06:40:10;18.60;63.30
62583;DHT22;48641;51.676;5.808;2023-05-16T06:42:36;18.60;63.30
62583;DHT22;48641;51.676;5.808;2023-05-16T06:45:01;18.60;63.30
62583;DHT22;48641;51.676;5.808;2023-05-16T06:47:27;18.60;63.30
62583;DHT22;48641;51.676;5.808;2023-05-16T06:49:53;18.60;63.30
62583;DHT22;48641;51.676;5.808;2023-05-16T06:52:18;18.60;63.50
62583;DHT22;48641;51.676;5.808;2023-05-16T06:54:44;18.60;63.40
62583;DHT22;48641;51.676;5.808;2023-05-16T06:57:09;18.60;63.40
62583;DHT22;48641;51.676;5.808;2023-05-16T06:59:35;18.60;63.30
62583;DHT22;48641;51.676;5.808;2023-05-16T07:02:01;18.60;63.30
62583;DHT22;48641;51.676;5.808;2023-05-16T07:04:26;18.60;63.40
62583;DHT22;48641;51.676;5.808;2023-05-16T07:06:52;18.50;63.20
62583;DHT22;48641;51.676;5.808;2023-05-16T07:09:19;18.60;63.30
62583;DHT22;48641;51.676;5.808;2023-05-16T07:11:45;18.60;63.40
62583;DHT22;48641;51.676;5.808;2023-05-16T07:14:10;18.60;63.30
62583;DHT22;48641;51.676;5.808;2023-05-16T07:16:36;18.60;63.40
62583;DHT22;48641;51.676;5.808;2023-05-16T07:19:02;18.50;63.30
62583;DHT22;48641;51.676;5.808;2023-05-16T07:21:28;18.60;63.40
62583;DHT22;48641;51.676;5.808;2023-05-16T07:23:53;18.60;63.60
62583;DHT22;48641;51.676;5.808;2023-05-16T07:26:19;18.60;63.80
62583;DHT22;48641;51.676;5.808;2023-05-16T07:28:48;18.60;63.60
62583;DHT22;48641;51.676;5.808;2023-05-16T07:31:14;18.60;63.10
62583;DHT22;48641;51.676;5.808;2023-05-16T07:33:40;18.60;61.70
62583;DHT22;48641;51.676;5.808;2023-05-16T07:36:06;18.50;59.50
62583;DHT22;48641;51.676;5.808;2023-05-16T07:38:32;18.50;58.00
62583;DHT22;48641;51.676;5.808;2023-05-16T07:40:58;18.40;56.90
62583;DHT22;48641;51.676;5.808;2023-05-16T07:43:23;18.40;56.80
62583;DHT22;48641;51.676;5.808;2023-05-16T07:45:49;18.40;57.50
62583;DHT22;48641;51.676;5.808;2023-05-16T07:48:15;18.40;58.20
62583;DHT22;48641;51.676;5.808;2023-05-16T07:50:41;18.40;58.40
62583;DHT22;48641;51.676;5.808;2023-05-16T07:53:07;18.30;58.40
62583;DHT22;48641;51.676;5.808;2023-05-16T07:55:32;18.30;58.60
62583;DHT22;48641;51.676;5.808;2023-05-16T07:57:58;18.30;58.60
62583;DHT22;48641;51.676;5.808;2023-05-16T08:00:23;18.30;58.80
62583;DHT22;48641;51.676;5.808;2023-05-16T08:02:50;18.30;58.90
62583;DHT22;48641;51.676;5.808;2023-05-16T08:05:15;18.30;59.00
62583;DHT22;48641;51.676;5.808;2023-05-16T08:07:41;18.30;59.20
62583;DHT22;48641;51.676;5.808;2023-05-16T08:10:07;18.30;59.30
62583;DHT22;48641;51.676;5.808;2023-05-16T08:12:33;18.30;59.40
62583;DHT22;48641;51.676;5.808;2023-05-16T08:14:58;18.30;59.50
62583;DHT22;48641;51.676;5.808;2023-05-16T08:17:24;18.30;59.60
62583;DHT22;48641;51.676;5.808;2023-05-16T08:19:49;18.30;59.60
62583;DHT22;48641;51.676;5.808;2023-05-16T08:22:15;18.30;59.60
62583;DHT22;48641;51.676;5.808;2023-05-16T08:24:40;18.30;59.80
62583;DHT22;48641;51.676;5.808;2023-05-16T08:27:06;18.30;59.90
62583;DHT22;48641;51.676;5.808;2023-05-16T08:29:33;18.30;59.90
62583;DHT22;48641;51.676;5.808;2023-05-16T08:31:58;18.30;60.00
62583;DHT22;48641;51.676;5.808;2023-05-16T08:34:24;18.30;60.00
62583;DHT22;48641;51.676;5.808;2023-05-16T08:36:49;18.30;60.10
62583;DHT22;48641;51.676;5.808;2023-05-16T08:39:15;18.30;60.10
62583;DHT22;48641;51.676;5.808;2023-05-16T08:41:41;18.30;60.20
62583;DHT22;48641;51.676;5.808;2023-05-16T08:44:06;18.30;60.30
62583;DHT22;48641;51.676;5.808;2023-05-16T08:46:34;18.30;60.40
62583;DHT22;48641;51.676;5.808;2023-05-16T08:49:01;18.30;60.40
62583;DHT22;48641;51.676;5.808;2023-05-16T08:51:32;18.30;60.40
62583;DHT22;48641;51.676;5.808;2023-05-16T08:54:06;18.30;60.40
62583;DHT22;48641;51.676;5.808;2023-05-16T08:56:35;18.30;60.50
62583;DHT22;48641;51.676;5.808;2023-05-16T08:59:02;18.30;60.50
62583;DHT22;48641;51.676;5.808;2023-05-16T09:01:29;18.30;60.60
62583;DHT22;48641;51.676;5.808;2023-05-16T09:03:57;18.30;60.60
62583;DHT22;48641;51.676;5.808;2023-05-16T09:06:23;18.30;60.60
62583;DHT22;48641;51.676;5.808;2023-05-16T09:08:49;18.30;60.70
62583;DHT22;48641;51.676;5.808;2023-05-16T09:11:15;18.30;60.70
62583;DHT22;48641;51.676;5.808;2023-05-16T09:13:40;18.30;60.80
62583;DHT22;48641;51.676;5.808;2023-05-16T09:16:18;18.30;60.90
62583;DHT22;48641;51.676;5.808;2023-05-16T09:18:45;18.30;60.80
62583;DHT22;48641;51.676;5.808;2023-05-16T09:21:11;18.30;60.80
62583;DHT22;48641;51.676;5.808;2023-05-16T09:23:37;18.30;60.80
62583;DHT22;48641;51.676;5.808;2023-05-16T09:26:04;18.30;60.90
62583;DHT22;48641;51.676;5.808;2023-05-16T09:28:32;18.30;61.00
62583;DHT22;48641;51.676;5.808;2023-05-16T09:30:58;18.30;61.20
62583;DHT22;48641;51.676;5.808;2023-05-16T09:33:27;18.30;61.40
62583;DHT22;48641;51.676;5.808;2023-05-16T09:36:03;18.30;61.30
62583;DHT22;48641;51.676;5.808;2023-05-16T09:38:28;18.30;61.00
62583;DHT22;48641;51.676;5.808;2023-05-16T09:40:54;18.30;60.90
62583;DHT22;48641;51.676;5.808;2023-05-16T09:43:23;18.30;61.00
62583;DHT22;48641;51.676;5.808;2023-05-16T09:45:49;18.30;61.00
62583;DHT22;48641;51.676;5.808;2023-05-16T09:48:16;18.30;61.00
62583;DHT22;48641;51.676;5.808;2023-05-16T09:50:46;18.20;61.30
62583;DHT22;48641;51.676;5.808;2023-05-16T09:53:14;18.20;61.30
62583;DHT22;48641;51.676;5.808;2023-05-16T09:55:39;18.20;61.30
62583;DHT22;48641;51.676;5.808;2023-05-16T09:58:05;18.20;61.30
62583;DHT22;48641;51.676;5.808;2023-05-16T10:00:32;18.20;61.40
62583;DHT22;48641;51.676;5.808;2023-05-16T10:02:59;18.20;61.50
62583;DHT22;48641;51.676;5.808;2023-05-16T10:05:26;18.20;61.50
62583;DHT22;48641;51.676;5.808;2023-05-16T10:07:55;18.20;61.50
62583;DHT22;48641;51.676;5.808;2023-05-16T10:10:22;18.30;61.50
62583;DHT22;48641;51.676;5.808;2023-05-16T10:12:49;18.20;61.10
62583;DHT22;48641;51.676;5.808;2023-05-16T10:15:16;18.20;60.90
62583;DHT22;48641;51.676;5.808;2023-05-16T10:17:44;18.20;60.70
62583;DHT22;48641;51.676;5.808;2023-05-16T10:20:14;18.30;60.40
62583;DHT22;48641;51.676;5.808;2023-05-16T10:22:43;18.20;60.30
62583;DHT22;48641;51.676;5.808;2023-05-16T10:25:28;18.20;60.30
62583;DHT22;48641;51.676;5.808;2023-05-16T10:27:54;18.20;60.10
62583;DHT22;48641;51.676;5.808;2023-05-16T10:30:21;18.20;59.90
62583;DHT22;48641;51.676;5.808;2023-05-16T10:32:46;18.20;60.00
62583;DHT22;48641;51.676;5.808;2023-05-16T10:35:13;18.20;60.00
62583;DHT22;48641;51.676;5.808;2023-05-16T10:37:39;18.20;60.10
62583;DHT22;48641;51.676;5.808;2023-05-16T10:40:07;18.20;60.20
62583;DHT22;48641;51.676;5.808;2023-05-16T10:42:33;18.20;60.30
62583;DHT22;48641;51.676;5.808;2023-05-16T10:45:18;18.20;60.10
62583;DHT22;48641;51.676;5.808;2023-05-16T10:47:58;18.30;59.60
62583;DHT22;48641;51.676;5.808;2023-05-16T10:50:41;18.30;59.20
62583;DHT22;48641;51.676;5.808;2023-05-16T10:55:47;18.20;60.40
62583;DHT22;48641;51.676;5.808;2023-05-16T10:58:21;18.20;59.70
62583;DHT22;48641;51.676;5.808;2023-05-16T11:00:47;18.20;59.80
62583;DHT22;48641;51.676;5.808;2023-05-16T11:03:23;18.20;59.90
62583;DHT22;48641;51.676;5.808;2023-05-16T11:05:53;18.30;59.80
62583;DHT22;48641;51.676;5.808;2023-05-16T11:08:24;18.30;59.90
62583;DHT22;48641;51.676;5.808;2023-05-16T11:10:49;18.30;60.00
62583;DHT22;48641;51.676;5.808;2023-05-16T11:13:53;18.30;60.00
62583;DHT22;48641;51.676;5.808;2023-05-16T11:16:26;18.30;60.00
62583;DHT22;48641;51.676;5.808;2023-05-16T11:18:51;18.30;60.10
62583;DHT22;48641;51.676;5.808;2023-05-16T11:21:17;18.30;60.10
62583;DHT22;48641;51.676;5.808;2023-05-16T11:23:42;18.30;60.20
62583;DHT22;48641;51.676;5.808;2023-05-16T11:26:08;18.30;60.10
62583;DHT22;48641;51.676;5.808;2023-05-16T11:28:33;18.40;60.10
62583;DHT22;48641;51.676;5.808;2023-05-16T11:30:59;18.40;60.10
62583;DHT22;48641;51.676;5.808;2023-05-16T11:33:26;18.40;59.90
62583;DHT22;48641;51.676;5.808;2023-05-16T11:36:05;18.40;59.80
62583;DHT22;48641;51.676;5.808;2023-05-16T11:38:31;18.40;59.70
62583;DHT22;48641;51.676;5.808;2023-05-16T11:41:04;18.40;59.90
62583;DHT22;48641;51.676;5.808;2023-05-16T11:43:41;18.40;59.60
62583;DHT22;48641;51.676;5.808;2023-05-16T11:46:13;18.40;59.30
62583;DHT22;48641;51.676;5.808;2023-05-16T11:48:39;18.40;59.50
62583;DHT22;48641;51.676;5.808;2023-05-16T11:51:05;18.40;59.60
62583;DHT22;48641;51.676;5.808;2023-05-16T11:53:32;18.40;59.50
62583;DHT22;48641;51.676;5.808;2023-05-16T11:55:58;18.40;59.30
62583;DHT22;48641;51.676;5.808;2023-05-16T11:58:26;18.40;59.20
62583;DHT22;48641;51.676;5.808;2023-05-16T12:00:51;18.50;59.40
62583;DHT22;48641;51.676;5.808;2023-05-16T12:03:18;18.50;59.30
62583;DHT22;48641;51.676;5.808;2023-05-16T12:05:54;18.50;59.20
62583;DHT22;48641;51.676;5.808;2023-05-16T12:08:22;18.50;59.20
62583;DHT22;48641;51.676;5.808;2023-05-16T12:10:49;18.50;59.10
62583;DHT22;48641;51.676;5.808;2023-05-16T12:13:20;18.50;59.20
62583;DHT22;48641;51.676;5.808;2023-05-16T12:15:47;18.50;59.10
62583;DHT22;48641;51.676;5.808;2023-05-16T12:18:14;18.50;59.10
62583;DHT22;48641;51.676;5.808;2023-05-16T12:20:40;18.50;59.10
62583;DHT22;48641;51.676;5.808;2023-05-16T12:23:12;18.50;59.10
62583;DHT22;48641;51.676;5.808;2023-05-16T12:25:43;18.50;59.00
62583;DHT22;48641;51.676;5.808;2023-05-16T12:28:11;18.50;58.90
62583;DHT22;48641;51.676;5.808;2023-05-16T12:30:40;18.50;58.70
62583;DHT22;48641;51.676;5.808;2023-05-16T12:33:09;18.50;58.90
62583;DHT22;48641;51.676;5.808;2023-05-16T12:35:43;18.40;58.90
62583;DHT22;48641;51.676;5.808;2023-05-16T12:40:39;18.40;58.50
62583;DHT22;48641;51.676;5.808;2023-05-16T12:43:15;18.50;58.70
62583;DHT22;48641;51.676;5.808;2023-05-16T12:45:41;18.50;58.40
62583;DHT22;48641;51.676;5.808;2023-05-16T12:48:16;18.50;58.80
62583;DHT22;48641;51.676;5.808;2023-05-16T12:50:41;18.50;58.70
62583;DHT22;48641;51.676;5.808;2023-05-16T12:53:12;18.50;58.60
62583;DHT22;48641;51.676;5.808;2023-05-16T12:55:38;18.50;58.60
62583;DHT22;48641;51.676;5.808;2023-05-16T12:58:04;18.50;58.30
62583;DHT22;48641;51.676;5.808;2023-05-16T13:00:30;18.40;58.20
62583;DHT22;48641;51.676;5.808;2023-05-16T13:02:56;18.50;58.40
62583;DHT22;48641;51.676;5.808;2023-05-16T13:05:22;18.50;58.40
62583;DHT22;48641;51.676;5.808;2023-05-16T13:07:48;18.50;58.30
62583;DHT22;48641;51.676;5.808;2023-05-16T13:10:16;18.50;58.40
62583;DHT22;48641;51.676;5.808;2023-05-16T13:12:43;18.50;58.60
62583;DHT22;48641;51.676;5.808;2023-05-16T13:15:10;18.50;58.70
62583;DHT22;48641;51.676;5.808;2023-05-16T13:17:37;18.40;58.60
62583;DHT22;48641;51.676;5.808;2023-05-16T13:20:04;18.40;58.70
62583;DHT22;48641;51.676;5.808;2023-05-16T13:22:35;18.40;58.60
62583;DHT22;48641;51.676;5.808;2023-05-16T13:25:01;18.40;58.70
62583;DHT22;48641;51.676;5.808;2023-05-16T13:27:29;18.50;58.60
62583;DHT22;48641;51.676;5.808;2023-05-16T13:29:54;18.50;58.50
62583;DHT22;48641;51.676;5.808;2023-05-16T13:32:23;18.50;58.60
62583;DHT22;48641;51.676;5.808;2023-05-16T13:34:49;18.40;58.70
62583;DHT22;48641;51.676;5.808;2023-05-16T13:37:15;18.40;58.80
62583;DHT22;48641;51.676;5.808;2023-05-16T13:39:41;18.40;58.70
62583;DHT22;48641;51.676;5.808;2023-05-16T13:42:07;18.50;58.90
62583;DHT22;48641;51.676;5.808;2023-05-16T13:44:32;18.40;59.00
62583;DHT22;48641;51.676;5.808;2023-05-16T13:46:58;18.40;59.10
62583;DHT22;48641;51.676;5.808;2023-05-16T13:49:24;18.40;59.10
62583;DHT22;48641;51.676;5.808;2023-05-16T13:51:49;18.40;59.30
62583;DHT22;48641;51.676;5.808;2023-05-16T13:54:17;18.40;59.30
62583;DHT22;48641;51.676;5.808;2023-05-16T13:56:43;18.40;59.50
62583;DHT22;48641;51.676;5.808;2023-05-16T13:59:09;18.50;59.60
62583;DHT22;48641;51.676;5.808;2023-05-16T14:01:34;18.50;59.60
62583;DHT22;48641;51.676;5.808;2023-05-16T14:04:00;18.50;59.70
62583;DHT22;48641;51.676;5.808;2023-05-16T14:06:26;18.50;59.70
62583;DHT22;48641;51.676;5.808;2023-05-16T14:08:52;18.50;59.80
62583;DHT22;48641;51.676;5.808;2023-05-16T14:11:18;18.50;59.90
62583;DHT22;48641;51.676;5.808;2023-05-16T14:13:44;18.50;60.00
62583;DHT22;48641;51.676;5.808;2023-05-16T14:16:10;18.50;60.00
62583;DHT22;48641;51.676;5.808;2023-05-16T14:18:36;18.50;60.00
62583;DHT22;48641;51.676;5.808;2023-05-16T14:21:01;18.50;60.10
62583;DHT22;48641;51.676;5.808;2023-05-16T14:23:27;18.50;60.10
62583;DHT22;48641;51.676;5.808;2023-05-16T14:25:53;18.50;60.10
62583;DHT22;48641;51.676;5.808;2023-05-16T14:28:18;18.50;60.10
62583;DHT22;48641;51.676;5.808;2023-05-16T14:30:44;18.50;60.20
62583;DHT22;48641;51.676;5.808;2023-05-16T14:33:12;18.50;60.10
62583;DHT22;48641;51.676;5.808;2023-05-16T14:35:39;18.50;60.20
62583;DHT22;48641;51.676;5.808;2023-05-16T14:38:05;18.50;60.20
62583;DHT22;48641;51.676;5.808;2023-05-16T14:40:31;18.50;60.30
62583;DHT22;48641;51.676;5.808;2023-05-16T14:42:58;18.50;60.30
62583;DHT22;48641;51.676;5.808;2023-05-16T14:45:24;18.50;60.30
62583;DHT22;48641;51.676;5.808;2023-05-16T14:47:50;18.50;60.40
62583;DHT22;48641;51.676;5.808;2023-05-16T14:50:16;18.50;60.40
62583;DHT22;48641;51.676;5.808;2023-05-16T14:52:41;18.50;60.50
62583;DHT22;48641;51.676;5.808;2023-05-16T14:55:07;18.50;60.50
62583;DHT22;48641;51.676;5.808;2023-05-16T14:57:33;18.50;60.50
62583;DHT22;48641;51.676;5.808;2023-05-16T14:59:58;18.50;60.50
62583;DHT22;48641;51.676;5.808;2023-05-16T15:02:24;18.50;60.50
62583;DHT22;48641;51.676;5.808;2023-05-16T15:04:51;18.50;60.60
62583;DHT22;48641;51.676;5.808;2023-05-16T15:07:17;18.50;60.50
62583;DHT22;48641;51.676;5.808;2023-05-16T15:09:43;18.50;60.60
62583;DHT22;48641;51.676;5.808;2023-05-16T15:12:08;18.50;60.60
62583;DHT22;48641;51.676;5.808;2023-05-16T15:14:34;18.50;60.60
62583;DHT22;48641;51.676;5.808;2023-05-16T15:17:00;18.50;60.70
62583;DHT22;48641;51.676;5.808;2023-05-16T15:19:25;18.50;60.70
62583;DHT22;48641;51.676;5.808;2023-05-16T15:21:51;18.50;60.70
62583;DHT22;48641;51.676;5.808;2023-05-16T15:24:17;18.50;60.70
62583;DHT22;48641;51.676;5.808;2023-05-16T15:26:42;18.50;60.70
62583;DHT22;48641;51.676;5.808;2023-05-16T15:29:08;18.50;60.70
62583;DHT22;48641;51.676;5.808;2023-05-16T15:31:33;18.50;60.70
62583;DHT22;48641;51.676;5.808;2023-05-16T15:33:59;18.50;60.80
62583;DHT22;48641;51.676;5.808;2023-05-16T15:36:25;18.50;60.80
62583;DHT22;48641;51.676;5.808;2023-05-16T15:38:50;18.50;60.80
62583;DHT22;48641;51.676;5.808;2023-05-16T15:41:17;18.50;60.80
62583;DHT22;48641;51.676;5.808;2023-05-16T15:43:42;18.50;60.80
62583;DHT22;48641;51.676;5.808;2023-05-16T15:46:08;18.50;60.80